Ride Results

Oss Foley Memorial Ride (03-11-2012)
Ride distance: 80.0 km

Outcomes - Oss Foley Memorial Ride (03-11-2012)
Division No. of Entries Retired / DNE Completed Withdrawn Ineligible V/O Percentage Completed
HW 12 - 5 - - 7 41.67%
MW 14 - 10 - - 4 71.43%
LW 14 - 11 2 - 1 78.57%
JN 10 - 8 - - 2 80.00%
Totals 50 - 34 2 - 14 68.00%
Results - Oss Foley Memorial Ride (03-11-2012)
No. Rider Horse Place Time Leg Speeds Total
Km/Hr
H/R bpm
Heavyweight
199 Dennis Foley Jnr Tierview Saahir 1 (BC) 5:33:00 16.9, 12.5 14.41 41, 52, 57 (Avg:54)
65 Mark Green Scrap 2 6:56:00 12.3, 10.8 11.54 48, 49, 54 (Avg:51)
247 David Pilgrim Lauralyn Bewitching 3 7:38:00 11.3, 9.7 10.48 48, 49, 59 (Avg:54)
123 Peter McIntee Hayden 4 8:01:01 10.4, 9.5 9.98 42, 51, 59 (Avg:55)
22 Sheleah Astell Arcadian Park Merlin 5 8:06:01 9.7, 9.9 9.88 48, 50, 57 (Avg:53)
82 Mark Dunn Bella Lame L2 0:00:00 11.1, 9.0 - 40, 46, 52 (Avg:49)
194 Robby Walsh Free Spirit Czar Lame L2 0:00:00 14.2, 11.3 - 40, 51, 60 (Avg:55)
38 Tony Purton Jeshar Park Shahriann Lame L1 0:00:00 17.0 - 39, 49 (Avg:49)
137 John Shoobridge Highland View Crush Heart Rate L1 0:00:00 14.7 - 54, 59 (Avg:59)
171 Craig Wall Undurra Shahkhan Lame L1 0:00:00 16.7 - 38, 54 (Avg:54)
166 Craig Wilson Stellar Express Heart Rate L1 0:00:00 13.0 - 47, 64 (Avg:64)
203 Allan Wyllie Castlebar Mystro Lame L1 0:00:00 9.6 - 56, 50 (Avg:50)
Middleweight
136 Kaye Mitchell Beer Street Takone 1 (BC) 6:14:00 14.7, 11.3 12.83 38, 41, 57 (Avg:49)
68 Janine Parr Harmere Natez 2 6:32:00 13.4, 11.2 12.24 41, 50, 57 (Avg:53)
180 Nicole Ford Highland View Steel 3 6:51:02 13.6, 10.2 11.68 46, 49, 53 (Avg:51)
21 Karen Quinn Harmere Basheer 4 7:13:00 12.6, 9.8 11.09 37, 50, 56 (Avg:53)
188 Leanne Freeman Rokewood Calgary 5 7:37:01 10.4, 10.5 10.50 46, 54, 60 (Avg:57)
162 Linda Pilgrim Espirit Jeramiah 6 7:38:01 11.3, 9.7 10.48 50, 54, 60 (Avg:57)
44 Kendal McIntee Tag-along Shamrock Park 7 8:01:00 10.4, 9.5 9.98 38, 49, 54 (Avg:51)
179 Debbie Grull Highland View Red 8 8:01:03 10.4, 9.5 9.98 34, 47, 53 (Avg:50)
160 Stacey Dodd Merlin 9 8:06:00 11.5, 8.6 9.88 36, 44, 48 (Avg:46)
102 Keryn Mahoney Tonki Dee Boo Pricilla 10 8:10:01 10.7, 9.0 9.80 42, 51, 55 (Avg:53)
204 Casey Hayes Davlyn Park Camille Lame L2 0:00:00 10.7, 9.9 - 35, 48, 55 (Avg:51)
187 Sheleah Astell Costa Zu Lame L1 0:00:00 14.7 - 46, 52 (Avg:52)
48 Alison Colbeck Duo Park Almighty Heart Rate L1 0:00:00 11.5 - 36, 58 (Avg:58)
69 Tracey Wyllie Castlebar Durack Lame L1 0:00:00 9.6 - 38, 48 (Avg:48)
Lightweight
124 Robyn Nibbs Beer Street Reuben 1 6:40:00 13.4, 10.8 12.00 39, 44, 55 (Avg:49)
200 Kristy Matheson DVS Barnaby 2 (BC) 6:51:01 13.6, 10.2 11.68 35, 44, 52 (Avg:48)
19 Sonia Hodgetts Karrana King 3 6:54:00 13.5, 10.1 11.59 35, 45, 42 (Avg:43)
100 Trish Smith Beaucheval Akhiran 3 6:54:00 13.6, 10.0 11.59 37, 50, 58 (Avg:54)
115 Jenny Keygan Woodsong Kasanova 5 7:13:00 12.6, 9.8 11.09 38, 45, 52 (Avg:48)
6 Christine King Follydown Safiy 6 7:37:00 10.4, 10.5 10.50 38, 52, 51 (Avg:51)
12 Anita Hutchins Enderby Shakira 7 7:38:02 11.8, 9.3 10.48 37, 45, 50 (Avg:47)
149 Sarina Tuck Tierview Zaria 8 8:00:01 11.1, 9.0 10.00 38, 52, 59 (Avg:55)
20 Jodi Smith Equus Billy Mop 9 8:01:02 11.5, 8.7 9.98 46, 49, 55 (Avg:52)
90 Angela Hawks Sandine Hustler 10 8:02:00 10.3, 9.5 9.96 39, 44, 51 (Avg:47)
1 Ann Richards Kintamani Shakil 11 8:10:00 10.7, 9.0 9.80 37, 45, 54 (Avg:49)
201 Linda Blanchard Galoubet Withdrawn L1 0:00:00 - - 36, 45 (Avg:45)
83 Angie Clark Cameo Bucephalus Withdrawn L1 0:00:00 - - 42, 55 (Avg:55)
198 Kiyoshi Matsui Jemma Lame P/R 0:00:00 - - 35
Junior
132 David Anderson Jnr Vandieman Princess Ellie 1 (BC) 4:30:00 16.9, 18.7 17.78 36, 53, 59 (Avg:56)
190 Alice Mitchell Beer Street Banshee 2 6:14:01 14.7, 11.3 12.83 42, 50, 57 (Avg:53)
154 Sarah Parker King Park Aberdeen Pelion 2 6:14:01 14.7, 11.3 12.83 33, 43, 48 (Avg:45)
107 Samantha Sward Badgerlyn Zack 4 6:36:00 13.0, 11.3 12.12 54, 45, 51 (Avg:48)
176 Bronte Page Calga Al-Hadiye 5 6:37:00 13.0, 11.2 12.09 41, 50, 59 (Avg:54)
29 Danielle Taylor Highland View Jess 6 7:38:03 11.8, 9.3 10.48 43, 46, 54 (Avg:50)
264 Ellie Maddick Castlebar Nasa 7 7:46:00 10.7, 9.8 10.30 32, 45, 54 (Avg:49)
150 Emily Shadbolt Bobby Burns 8 7:50:00 9.6, 10.8 10.21 36, 42, 49 (Avg:45)
237 Khalan Ford Highland View JJ Lame L2 0:00:00 13.6, 10.2 - 35, 47, 49 (Avg:48)
209 Grace Huxtable Samson of Glendhu Heart Rate L2 0:00:00 17.0, 18.6 - 36, 46, 61 (Avg:53)